sensor_id;sensor_type;location;lat;lon;timestamp;temperature;humidity
61392;DHT22;47261;52.892;5.738;2022-08-16T00:00:32;21.80;85.70
61392;DHT22;47261;52.892;5.738;2022-08-16T00:02:58;21.80;85.70
61392;DHT22;47261;52.892;5.738;2022-08-16T00:05:25;21.80;85.70
61392;DHT22;47261;52.892;5.738;2022-08-16T00:07:51;21.80;85.80
61392;DHT22;47261;52.892;5.738;2022-08-16T00:10:17;21.80;85.80
61392;DHT22;47261;52.892;5.738;2022-08-16T00:12:43;21.70;85.80
61392;DHT22;47261;52.892;5.738;2022-08-16T00:15:20;21.70;85.90
61392;DHT22;47261;52.892;5.738;2022-08-16T00:17:46;21.70;86.10
61392;DHT22;47261;52.892;5.738;2022-08-16T00:20:12;21.70;86.20
61392;DHT22;47261;52.892;5.738;2022-08-16T00:22:39;21.70;86.30
61392;DHT22;47261;52.892;5.738;2022-08-16T00:25:06;21.70;86.40
61392;DHT22;47261;52.892;5.738;2022-08-16T00:27:33;21.60;86.40
61392;DHT22;47261;52.892;5.738;2022-08-16T00:29:58;21.60;87.10
61392;DHT22;47261;52.892;5.738;2022-08-16T00:32:24;21.60;86.60
61392;DHT22;47261;52.892;5.738;2022-08-16T00:34:49;21.60;86.60
61392;DHT22;47261;52.892;5.738;2022-08-16T00:37:15;21.60;86.80
61392;DHT22;47261;52.892;5.738;2022-08-16T00:39:41;21.50;86.90
61392;DHT22;47261;52.892;5.738;2022-08-16T00:42:06;21.50;87.00
61392;DHT22;47261;52.892;5.738;2022-08-16T00:44:32;21.50;87.20
61392;DHT22;47261;52.892;5.738;2022-08-16T00:47:00;21.50;87.30
61392;DHT22;47261;52.892;5.738;2022-08-16T00:49:29;21.50;87.40
61392;DHT22;47261;52.892;5.738;2022-08-16T00:51:55;21.50;87.60
61392;DHT22;47261;52.892;5.738;2022-08-16T00:54:21;21.50;87.80
61392;DHT22;47261;52.892;5.738;2022-08-16T00:56:48;21.50;88.00
61392;DHT22;47261;52.892;5.738;2022-08-16T00:59:15;21.40;88.10
61392;DHT22;47261;52.892;5.738;2022-08-16T01:01:41;21.40;88.30
61392;DHT22;47261;52.892;5.738;2022-08-16T01:04:07;21.40;88.40
61392;DHT22;47261;52.892;5.738;2022-08-16T01:06:34;21.40;88.60
61392;DHT22;47261;52.892;5.738;2022-08-16T01:09:01;21.40;88.70
61392;DHT22;47261;52.892;5.738;2022-08-16T01:11:30;21.40;88.90
61392;DHT22;47261;52.892;5.738;2022-08-16T01:13:59;21.30;89.00
61392;DHT22;47261;52.892;5.738;2022-08-16T01:16:27;21.30;89.20
61392;DHT22;47261;52.892;5.738;2022-08-16T01:18:58;21.30;89.40
61392;DHT22;47261;52.892;5.738;2022-08-16T01:26:27;21.40;90.00
61392;DHT22;47261;52.892;5.738;2022-08-16T01:28:58;21.30;90.00
61392;DHT22;47261;52.892;5.738;2022-08-16T01:31:25;21.30;90.10
61392;DHT22;47261;52.892;5.738;2022-08-16T01:33:50;21.40;90.10
61392;DHT22;47261;52.892;5.738;2022-08-16T01:36:16;21.40;90.20
61392;DHT22;47261;52.892;5.738;2022-08-16T01:38:43;21.40;90.20
61392;DHT22;47261;52.892;5.738;2022-08-16T01:41:13;21.40;90.20
61392;DHT22;47261;52.892;5.738;2022-08-16T01:43:39;21.40;90.20
61392;DHT22;47261;52.892;5.738;2022-08-16T01:46:06;21.30;90.10
61392;DHT22;47261;52.892;5.738;2022-08-16T01:48:32;21.30;90.10
61392;DHT22;47261;52.892;5.738;2022-08-16T01:50:58;21.30;90.10
61392;DHT22;47261;52.892;5.738;2022-08-16T01:53:25;21.30;90.10
61392;DHT22;47261;52.892;5.738;2022-08-16T01:55:51;21.30;90.10
61392;DHT22;47261;52.892;5.738;2022-08-16T01:58:16;21.20;90.10
61392;DHT22;47261;52.892;5.738;2022-08-16T02:00:43;21.20;90.20
61392;DHT22;47261;52.892;5.738;2022-08-16T02:03:09;21.20;90.30
61392;DHT22;47261;52.892;5.738;2022-08-16T02:05:34;21.10;90.20
61392;DHT22;47261;52.892;5.738;2022-08-16T02:08:00;21.10;90.30
61392;DHT22;47261;52.892;5.738;2022-08-16T02:10:26;21.10;90.30
61392;DHT22;47261;52.892;5.738;2022-08-16T02:12:52;21.00;90.30
61392;DHT22;47261;52.892;5.738;2022-08-16T02:15:20;21.00;90.20
61392;DHT22;47261;52.892;5.738;2022-08-16T02:17:46;21.00;90.20
61392;DHT22;47261;52.892;5.738;2022-08-16T02:20:11;20.90;90.10
61392;DHT22;47261;52.892;5.738;2022-08-16T02:22:37;20.90;90.10
61392;DHT22;47261;52.892;5.738;2022-08-16T02:25:06;20.80;90.00
61392;DHT22;47261;52.892;5.738;2022-08-16T02:27:32;20.80;90.00
61392;DHT22;47261;52.892;5.738;2022-08-16T02:29:57;20.70;90.00
61392;DHT22;47261;52.892;5.738;2022-08-16T02:32:23;20.70;90.00
61392;DHT22;47261;52.892;5.738;2022-08-16T02:34:48;20.60;89.90
61392;DHT22;47261;52.892;5.738;2022-08-16T02:37:14;20.50;89.80
61392;DHT22;47261;52.892;5.738;2022-08-16T02:39:39;20.50;89.90
61392;DHT22;47261;52.892;5.738;2022-08-16T02:42:05;20.40;89.80
61392;DHT22;47261;52.892;5.738;2022-08-16T02:44:30;20.40;89.80
61392;DHT22;47261;52.892;5.738;2022-08-16T02:46:56;20.30;89.80
61392;DHT22;47261;52.892;5.738;2022-08-16T02:49:21;20.30;89.90
61392;DHT22;47261;52.892;5.738;2022-08-16T02:51:47;20.20;89.90
61392;DHT22;47261;52.892;5.738;2022-08-16T02:54:13;20.20;90.00
61392;DHT22;47261;52.892;5.738;2022-08-16T02:56:39;20.10;90.00
61392;DHT22;47261;52.892;5.738;2022-08-16T02:59:05;20.10;90.00
61392;DHT22;47261;52.892;5.738;2022-08-16T03:01:31;20.10;90.00
61392;DHT22;47261;52.892;5.738;2022-08-16T03:03:58;20.00;90.00
61392;DHT22;47261;52.892;5.738;2022-08-16T03:06:24;20.10;90.10
61392;DHT22;47261;52.892;5.738;2022-08-16T03:08:50;20.10;90.20
61392;DHT22;47261;52.892;5.738;2022-08-16T03:11:16;20.10;90.20
61392;DHT22;47261;52.892;5.738;2022-08-16T03:13:50;20.00;90.20
61392;DHT22;47261;52.892;5.738;2022-08-16T03:16:16;20.00;90.20
61392;DHT22;47261;52.892;5.738;2022-08-16T03:18:41;20.00;90.20
61392;DHT22;47261;52.892;5.738;2022-08-16T03:21:07;19.90;90.20
61392;DHT22;47261;52.892;5.738;2022-08-16T03:23:33;19.90;90.20
61392;DHT22;47261;52.892;5.738;2022-08-16T03:25:59;19.80;90.20
61392;DHT22;47261;52.892;5.738;2022-08-16T03:28:25;19.80;90.30
61392;DHT22;47261;52.892;5.738;2022-08-16T03:30:50;19.70;90.30
61392;DHT22;47261;52.892;5.738;2022-08-16T03:33:16;19.70;90.30
61392;DHT22;47261;52.892;5.738;2022-08-16T03:35:41;19.60;90.30
61392;DHT22;47261;52.892;5.738;2022-08-16T03:38:09;19.60;90.30
61392;DHT22;47261;52.892;5.738;2022-08-16T03:40:35;19.50;90.30
61392;DHT22;47261;52.892;5.738;2022-08-16T03:43:02;19.50;90.30
61392;DHT22;47261;52.892;5.738;2022-08-16T03:45:30;19.50;90.40
61392;DHT22;47261;52.892;5.738;2022-08-16T03:47:55;19.40;90.40
61392;DHT22;47261;52.892;5.738;2022-08-16T03:50:21;19.50;90.40
61392;DHT22;47261;52.892;5.738;2022-08-16T03:52:46;19.40;90.50
61392;DHT22;47261;52.892;5.738;2022-08-16T03:55:12;19.40;90.50
61392;DHT22;47261;52.892;5.738;2022-08-16T03:57:38;19.40;90.50
61392;DHT22;47261;52.892;5.738;2022-08-16T04:00:11;19.40;90.60
61392;DHT22;47261;52.892;5.738;2022-08-16T04:02:38;19.40;90.60
61392;DHT22;47261;52.892;5.738;2022-08-16T04:05:04;19.40;90.60
61392;DHT22;47261;52.892;5.738;2022-08-16T04:07:30;19.40;90.60
61392;DHT22;47261;52.892;5.738;2022-08-16T04:09:56;19.40;90.70
61392;DHT22;47261;52.892;5.738;2022-08-16T04:12:21;19.40;90.70
61392;DHT22;47261;52.892;5.738;2022-08-16T04:14:47;19.40;90.60
61392;DHT22;47261;52.892;5.738;2022-08-16T04:17:13;19.40;90.60
61392;DHT22;47261;52.892;5.738;2022-08-16T04:19:40;19.30;90.60
61392;DHT22;47261;52.892;5.738;2022-08-16T04:22:05;19.30;90.60
61392;DHT22;47261;52.892;5.738;2022-08-16T04:24:31;19.30;90.70
61392;DHT22;47261;52.892;5.738;2022-08-16T04:26:57;19.30;90.70
61392;DHT22;47261;52.892;5.738;2022-08-16T04:29:22;19.30;90.70
61392;DHT22;47261;52.892;5.738;2022-08-16T04:31:49;19.30;90.70
61392;DHT22;47261;52.892;5.738;2022-08-16T04:34:14;19.30;90.70
61392;DHT22;47261;52.892;5.738;2022-08-16T04:36:40;19.30;90.70
61392;DHT22;47261;52.892;5.738;2022-08-16T04:39:05;19.30;90.70
61392;DHT22;47261;52.892;5.738;2022-08-16T04:41:31;19.30;90.80
61392;DHT22;47261;52.892;5.738;2022-08-16T04:43:58;19.30;90.80
61392;DHT22;47261;52.892;5.738;2022-08-16T04:46:24;19.30;90.80
61392;DHT22;47261;52.892;5.738;2022-08-16T04:48:49;19.30;90.80
61392;DHT22;47261;52.892;5.738;2022-08-16T04:51:15;19.30;90.80
61392;DHT22;47261;52.892;5.738;2022-08-16T04:53:40;19.30;90.90
61392;DHT22;47261;52.892;5.738;2022-08-16T04:56:07;19.30;90.90
61392;DHT22;47261;52.892;5.738;2022-08-16T04:58:32;19.40;91.00
61392;DHT22;47261;52.892;5.738;2022-08-16T05:00:58;19.30;91.00
61392;DHT22;47261;52.892;5.738;2022-08-16T05:03:24;19.40;91.00
61392;DHT22;47261;52.892;5.738;2022-08-16T05:05:50;19.40;91.00
61392;DHT22;47261;52.892;5.738;2022-08-16T05:08:16;19.40;91.00
61392;DHT22;47261;52.892;5.738;2022-08-16T05:10:41;19.40;91.20
61392;DHT22;47261;52.892;5.738;2022-08-16T05:13:07;19.40;91.00
61392;DHT22;47261;52.892;5.738;2022-08-16T05:15:33;19.40;91.00
61392;DHT22;47261;52.892;5.738;2022-08-16T05:17:59;19.40;91.00
61392;DHT22;47261;52.892;5.738;2022-08-16T05:20:24;19.40;91.00
61392;DHT22;47261;52.892;5.738;2022-08-16T05:22:51;19.40;91.10
61392;DHT22;47261;52.892;5.738;2022-08-16T05:25:16;19.50;91.20
61392;DHT22;47261;52.892;5.738;2022-08-16T05:27:42;19.50;91.30
61392;DHT22;47261;52.892;5.738;2022-08-16T05:30:08;19.60;91.40
61392;DHT22;47261;52.892;5.738;2022-08-16T05:32:34;19.60;91.50
61392;DHT22;47261;52.892;5.738;2022-08-16T05:35:01;19.70;91.60
61392;DHT22;47261;52.892;5.738;2022-08-16T05:37:26;19.80;91.70
61392;DHT22;47261;52.892;5.738;2022-08-16T05:39:52;19.90;91.80
61392;DHT22;47261;52.892;5.738;2022-08-16T05:42:17;20.10;91.80
61392;DHT22;47261;52.892;5.738;2022-08-16T05:44:43;20.40;91.60
61392;DHT22;47261;52.892;5.738;2022-08-16T05:47:08;20.70;91.30
61392;DHT22;47261;52.892;5.738;2022-08-16T05:49:34;21.00;90.90
61392;DHT22;47261;52.892;5.738;2022-08-16T05:51:59;21.30;90.60
61392;DHT22;47261;52.892;5.738;2022-08-16T05:54:26;21.50;90.20
61392;DHT22;47261;52.892;5.738;2022-08-16T05:56:53;21.60;90.00
61392;DHT22;47261;52.892;5.738;2022-08-16T05:59:18;21.80;90.00
61392;DHT22;47261;52.892;5.738;2022-08-16T06:01:46;21.90;89.90
61392;DHT22;47261;52.892;5.738;2022-08-16T06:04:14;21.90;89.90
61392;DHT22;47261;52.892;5.738;2022-08-16T06:06:41;22.00;90.00
61392;DHT22;47261;52.892;5.738;2022-08-16T06:09:07;22.00;90.00
61392;DHT22;47261;52.892;5.738;2022-08-16T06:11:32;22.00;89.90
61392;DHT22;47261;52.892;5.738;2022-08-16T06:13:58;22.10;89.90
61392;DHT22;47261;52.892;5.738;2022-08-16T06:16:23;22.20;89.80
61392;DHT22;47261;52.892;5.738;2022-08-16T06:18:49;22.20;89.40
61392;DHT22;47261;52.892;5.738;2022-08-16T06:21:14;22.20;89.50
61392;DHT22;47261;52.892;5.738;2022-08-16T06:23:40;22.30;89.50
61392;DHT22;47261;52.892;5.738;2022-08-16T06:26:06;22.30;89.50
61392;DHT22;47261;52.892;5.738;2022-08-16T06:28:31;22.30;89.50
61392;DHT22;47261;52.892;5.738;2022-08-16T06:30:57;22.30;89.50
61392;DHT22;47261;52.892;5.738;2022-08-16T06:33:23;22.30;89.60
61392;DHT22;47261;52.892;5.738;2022-08-16T06:35:49;22.30;89.70
61392;DHT22;47261;52.892;5.738;2022-08-16T06:38:15;22.30;89.80
61392;DHT22;47261;52.892;5.738;2022-08-16T06:40:41;22.30;90.00
61392;DHT22;47261;52.892;5.738;2022-08-16T06:43:06;22.30;90.00
61392;DHT22;47261;52.892;5.738;2022-08-16T06:45:32;22.30;90.20
61392;DHT22;47261;52.892;5.738;2022-08-16T06:48:05;22.20;90.20
61392;DHT22;47261;52.892;5.738;2022-08-16T06:50:31;22.30;90.30
61392;DHT22;47261;52.892;5.738;2022-08-16T06:52:57;22.30;90.40
61392;DHT22;47261;52.892;5.738;2022-08-16T06:55:22;22.30;90.50
61392;DHT22;47261;52.892;5.738;2022-08-16T06:57:49;22.40;90.60
61392;DHT22;47261;52.892;5.738;2022-08-16T07:00:14;22.50;90.70
61392;DHT22;47261;52.892;5.738;2022-08-16T07:02:40;22.60;90.70
61392;DHT22;47261;52.892;5.738;2022-08-16T07:05:07;22.70;90.70
61392;DHT22;47261;52.892;5.738;2022-08-16T07:07:33;22.80;90.60
61392;DHT22;47261;52.892;5.738;2022-08-16T07:09:58;22.90;90.70
61392;DHT22;47261;52.892;5.738;2022-08-16T07:12:24;23.00;90.40
61392;DHT22;47261;52.892;5.738;2022-08-16T07:14:49;23.00;90.20
61392;DHT22;47261;52.892;5.738;2022-08-16T07:17:15;23.00;89.70
61392;DHT22;47261;52.892;5.738;2022-08-16T07:19:42;23.00;89.60
61392;DHT22;47261;52.892;5.738;2022-08-16T07:22:08;23.10;90.00
61392;DHT22;47261;52.892;5.738;2022-08-16T07:24:33;23.00;89.70
61392;DHT22;47261;52.892;5.738;2022-08-16T07:26:59;23.00;90.00
61392;DHT22;47261;52.892;5.738;2022-08-16T07:29:25;23.00;90.30
61392;DHT22;47261;52.892;5.738;2022-08-16T07:31:50;23.00;90.20
61392;DHT22;47261;52.892;5.738;2022-08-16T07:34:16;23.00;90.50
61392;DHT22;47261;52.892;5.738;2022-08-16T07:36:42;23.00;90.60
61392;DHT22;47261;52.892;5.738;2022-08-16T07:39:10;23.00;90.40
61392;DHT22;47261;52.892;5.738;2022-08-16T07:41:35;23.00;90.30
61392;DHT22;47261;52.892;5.738;2022-08-16T07:44:01;23.00;90.40
61392;DHT22;47261;52.892;5.738;2022-08-16T07:46:27;23.00;90.50
61392;DHT22;47261;52.892;5.738;2022-08-16T07:48:52;23.10;90.30
61392;DHT22;47261;52.892;5.738;2022-08-16T07:51:18;23.10;90.40
61392;DHT22;47261;52.892;5.738;2022-08-16T07:53:43;23.20;90.20
61392;DHT22;47261;52.892;5.738;2022-08-16T07:56:11;23.20;90.40
61392;DHT22;47261;52.892;5.738;2022-08-16T07:58:37;23.30;90.10
61392;DHT22;47261;52.892;5.738;2022-08-16T08:01:03;23.30;90.30
61392;DHT22;47261;52.892;5.738;2022-08-16T08:03:29;23.40;90.40
61392;DHT22;47261;52.892;5.738;2022-08-16T08:05:55;23.40;90.10
61392;DHT22;47261;52.892;5.738;2022-08-16T08:08:21;23.40;89.80
61392;DHT22;47261;52.892;5.738;2022-08-16T08:10:46;23.40;89.40
61392;DHT22;47261;52.892;5.738;2022-08-16T08:13:12;23.40;89.20
61392;DHT22;47261;52.892;5.738;2022-08-16T08:15:39;23.40;88.90
61392;DHT22;47261;52.892;5.738;2022-08-16T08:18:05;23.40;89.60
61392;DHT22;47261;52.892;5.738;2022-08-16T08:20:30;23.50;89.70
61392;DHT22;47261;52.892;5.738;2022-08-16T08:22:56;23.50;90.00
61392;DHT22;47261;52.892;5.738;2022-08-16T08:25:23;23.50;89.90
61392;DHT22;47261;52.892;5.738;2022-08-16T08:27:48;23.60;90.10
61392;DHT22;47261;52.892;5.738;2022-08-16T08:30:14;23.60;90.10
61392;DHT22;47261;52.892;5.738;2022-08-16T08:32:40;23.70;89.50
61392;DHT22;47261;52.892;5.738;2022-08-16T08:35:06;23.80;89.20
61392;DHT22;47261;52.892;5.738;2022-08-16T08:37:32;23.80;88.90
61392;DHT22;47261;52.892;5.738;2022-08-16T08:39:58;23.80;88.10
61392;DHT22;47261;52.892;5.738;2022-08-16T08:42:24;23.80;87.70
61392;DHT22;47261;52.892;5.738;2022-08-16T08:44:50;23.80;87.90
61392;DHT22;47261;52.892;5.738;2022-08-16T08:47:16;23.90;87.40
61392;DHT22;47261;52.892;5.738;2022-08-16T08:49:42;24.00;87.20
61392;DHT22;47261;52.892;5.738;2022-08-16T08:52:07;24.00;87.00
61392;DHT22;47261;52.892;5.738;2022-08-16T08:54:33;24.00;86.70
61392;DHT22;47261;52.892;5.738;2022-08-16T08:56:59;24.10;86.10
61392;DHT22;47261;52.892;5.738;2022-08-16T08:59:25;24.10;86.20
61392;DHT22;47261;52.892;5.738;2022-08-16T09:01:50;24.20;86.40
61392;DHT22;47261;52.892;5.738;2022-08-16T09:04:16;24.20;86.20
61392;DHT22;47261;52.892;5.738;2022-08-16T09:06:42;24.40;85.70
61392;DHT22;47261;52.892;5.738;2022-08-16T09:09:08;24.40;84.40
61392;DHT22;47261;52.892;5.738;2022-08-16T09:11:34;24.50;83.20
61392;DHT22;47261;52.892;5.738;2022-08-16T09:14:01;24.50;82.70
61392;DHT22;47261;52.892;5.738;2022-08-16T09:16:26;24.50;81.90
61392;DHT22;47261;52.892;5.738;2022-08-16T09:18:52;24.60;82.40
61392;DHT22;47261;52.892;5.738;2022-08-16T09:21:17;24.60;83.00
61392;DHT22;47261;52.892;5.738;2022-08-16T09:23:44;24.70;83.20
61392;DHT22;47261;52.892;5.738;2022-08-16T09:26:11;24.80;84.10
61392;DHT22;47261;52.892;5.738;2022-08-16T09:28:37;25.00;84.00
61392;DHT22;47261;52.892;5.738;2022-08-16T09:31:05;25.10;83.20
61392;DHT22;47261;52.892;5.738;2022-08-16T09:33:31;25.20;83.00
61392;DHT22;47261;52.892;5.738;2022-08-16T09:35:56;25.30;82.60
61392;DHT22;47261;52.892;5.738;2022-08-16T09:38:22;25.40;82.80
61392;DHT22;47261;52.892;5.738;2022-08-16T09:40:48;25.60;81.60
61392;DHT22;47261;52.892;5.738;2022-08-16T09:43:15;25.70;81.30
61392;DHT22;47261;52.892;5.738;2022-08-16T09:45:42;25.80;81.70
61392;DHT22;47261;52.892;5.738;2022-08-16T09:48:09;26.00;81.50
61392;DHT22;47261;52.892;5.738;2022-08-16T09:50:35;26.10;80.30
61392;DHT22;47261;52.892;5.738;2022-08-16T09:53:07;26.20;80.60
61392;DHT22;47261;52.892;5.738;2022-08-16T09:55:32;26.40;80.30
61392;DHT22;47261;52.892;5.738;2022-08-16T09:57:58;26.50;79.10
61392;DHT22;47261;52.892;5.738;2022-08-16T10:00:23;26.60;78.00
61392;DHT22;47261;52.892;5.738;2022-08-16T10:02:51;26.60;78.60
61392;DHT22;47261;52.892;5.738;2022-08-16T10:05:17;26.70;78.10
61392;DHT22;47261;52.892;5.738;2022-08-16T10:07:43;26.70;78.00
61392;DHT22;47261;52.892;5.738;2022-08-16T10:10:09;26.70;77.90
61392;DHT22;47261;52.892;5.738;2022-08-16T10:12:35;26.80;78.80
61392;DHT22;47261;52.892;5.738;2022-08-16T10:15:19;26.80;78.70
61392;DHT22;47261;52.892;5.738;2022-08-16T10:17:46;26.80;76.60
61392;DHT22;47261;52.892;5.738;2022-08-16T10:20:11;26.70;76.70
61392;DHT22;47261;52.892;5.738;2022-08-16T10:22:37;26.60;76.70
61392;DHT22;47261;52.892;5.738;2022-08-16T10:25:06;26.50;77.40
61392;DHT22;47261;52.892;5.738;2022-08-16T10:27:31;26.50;77.00
61392;DHT22;47261;52.892;5.738;2022-08-16T10:29:59;26.50;76.80
61392;DHT22;47261;52.892;5.738;2022-08-16T10:32:25;26.40;77.80
61392;DHT22;47261;52.892;5.738;2022-08-16T10:34:51;26.40;78.30
61392;DHT22;47261;52.892;5.738;2022-08-16T10:37:16;26.30;77.50
61392;DHT22;47261;52.892;5.738;2022-08-16T10:39:42;26.30;77.30
61392;DHT22;47261;52.892;5.738;2022-08-16T10:42:08;26.30;78.20
61392;DHT22;47261;52.892;5.738;2022-08-16T10:44:33;26.30;79.30
61392;DHT22;47261;52.892;5.738;2022-08-16T10:46:59;26.30;79.20
61392;DHT22;47261;52.892;5.738;2022-08-16T10:49:24;26.30;78.70
61392;DHT22;47261;52.892;5.738;2022-08-16T10:51:50;26.30;77.90
61392;DHT22;47261;52.892;5.738;2022-08-16T10:54:20;26.30;78.30
61392;DHT22;47261;52.892;5.738;2022-08-16T10:56:45;26.30;78.40
61392;DHT22;47261;52.892;5.738;2022-08-16T10:59:11;26.20;78.20
61392;DHT22;47261;52.892;5.738;2022-08-16T11:01:36;26.10;78.50
61392;DHT22;47261;52.892;5.738;2022-08-16T11:04:02;26.20;79.10
61392;DHT22;47261;52.892;5.738;2022-08-16T11:06:28;26.30;79.50
61392;DHT22;47261;52.892;5.738;2022-08-16T11:08:53;26.40;79.60
61392;DHT22;47261;52.892;5.738;2022-08-16T11:11:20;26.60;78.80
61392;DHT22;47261;52.892;5.738;2022-08-16T11:13:46;26.80;78.70
61392;DHT22;47261;52.892;5.738;2022-08-16T11:16:13;26.90;78.00
61392;DHT22;47261;52.892;5.738;2022-08-16T11:18:38;27.00;77.60
61392;DHT22;47261;52.892;5.738;2022-08-16T11:21:04;27.10;77.80
61392;DHT22;47261;52.892;5.738;2022-08-16T11:23:29;27.10;76.50
61392;DHT22;47261;52.892;5.738;2022-08-16T11:25:55;27.20;76.20
61392;DHT22;47261;52.892;5.738;2022-08-16T11:28:21;27.20;76.50
61392;DHT22;47261;52.892;5.738;2022-08-16T11:30:46;27.30;76.30
61392;DHT22;47261;52.892;5.738;2022-08-16T11:33:12;27.20;75.40
61392;DHT22;47261;52.892;5.738;2022-08-16T11:35:38;27.10;75.80
61392;DHT22;47261;52.892;5.738;2022-08-16T11:38:07;27.10;75.80
61392;DHT22;47261;52.892;5.738;2022-08-16T11:40:34;27.10;76.50
61392;DHT22;47261;52.892;5.738;2022-08-16T11:43:02;27.20;76.70
61392;DHT22;47261;52.892;5.738;2022-08-16T11:45:28;27.40;76.70
61392;DHT22;47261;52.892;5.738;2022-08-16T11:47:53;27.50;76.10
61392;DHT22;47261;52.892;5.738;2022-08-16T11:50:19;27.70;75.50
61392;DHT22;47261;52.892;5.738;2022-08-16T11:52:45;27.90;74.80
61392;DHT22;47261;52.892;5.738;2022-08-16T11:55:11;28.00;74.50
61392;DHT22;47261;52.892;5.738;2022-08-16T11:57:37;28.00;73.10
61392;DHT22;47261;52.892;5.738;2022-08-16T12:00:10;28.00;73.20
61392;DHT22;47261;52.892;5.738;2022-08-16T12:02:36;28.10;74.00
61392;DHT22;47261;52.892;5.738;2022-08-16T12:05:02;28.10;73.40
61392;DHT22;47261;52.892;5.738;2022-08-16T12:07:28;28.20;73.20
61392;DHT22;47261;52.892;5.738;2022-08-16T12:09:54;28.20;72.70
61392;DHT22;47261;52.892;5.738;2022-08-16T12:12:20;28.20;72.90
61392;DHT22;47261;52.892;5.738;2022-08-16T12:14:45;28.20;72.50
61392;DHT22;47261;52.892;5.738;2022-08-16T12:17:11;28.20;72.80
61392;DHT22;47261;52.892;5.738;2022-08-16T12:19:36;28.20;73.40
61392;DHT22;47261;52.892;5.738;2022-08-16T12:22:03;28.10;72.50
61392;DHT22;47261;52.892;5.738;2022-08-16T12:24:28;27.90;73.50
61392;DHT22;47261;52.892;5.738;2022-08-16T12:26:54;27.80;73.10
61392;DHT22;47261;52.892;5.738;2022-08-16T12:29:20;27.70;73.90
61392;DHT22;47261;52.892;5.738;2022-08-16T12:31:46;27.50;74.20
61392;DHT22;47261;52.892;5.738;2022-08-16T12:34:13;27.40;74.10
61392;DHT22;47261;52.892;5.738;2022-08-16T12:36:38;27.20;74.70
61392;DHT22;47261;52.892;5.738;2022-08-16T12:39:04;27.20;75.70
61392;DHT22;47261;52.892;5.738;2022-08-16T12:41:31;27.00;75.60
61392;DHT22;47261;52.892;5.738;2022-08-16T12:43:57;26.90;76.30
61392;DHT22;47261;52.892;5.738;2022-08-16T12:46:22;26.90;76.50
61392;DHT22;47261;52.892;5.738;2022-08-16T12:48:48;26.90;76.90
61392;DHT22;47261;52.892;5.738;2022-08-16T12:51:24;27.00;77.70
61392;DHT22;47261;52.892;5.738;2022-08-16T12:53:52;27.00;77.10
61392;DHT22;47261;52.892;5.738;2022-08-16T12:56:19;27.20;77.00
61392;DHT22;47261;52.892;5.738;2022-08-16T12:58:45;27.20;75.30
61392;DHT22;47261;52.892;5.738;2022-08-16T13:01:17;27.30;75.20
61392;DHT22;47261;52.892;5.738;2022-08-16T13:03:43;27.30;75.60
61392;DHT22;47261;52.892;5.738;2022-08-16T13:06:10;27.40;75.60
61392;DHT22;47261;52.892;5.738;2022-08-16T13:08:36;27.50;75.80
61392;DHT22;47261;52.892;5.738;2022-08-16T13:11:01;27.60;75.40
61392;DHT22;47261;52.892;5.738;2022-08-16T13:13:29;27.60;74.40
61392;DHT22;47261;52.892;5.738;2022-08-16T13:15:57;27.60;75.00
61392;DHT22;47261;52.892;5.738;2022-08-16T13:18:24;27.60;74.10
61392;DHT22;47261;52.892;5.738;2022-08-16T13:20:51;27.60;74.40
61392;DHT22;47261;52.892;5.738;2022-08-16T13:23:17;27.60;74.50
61392;DHT22;47261;52.892;5.738;2022-08-16T13:25:43;27.50;74.00
61392;DHT22;47261;52.892;5.738;2022-08-16T13:28:09;27.50;73.70
61392;DHT22;47261;52.892;5.738;2022-08-16T13:30:38;27.50;74.50
61392;DHT22;47261;52.892;5.738;2022-08-16T13:33:05;27.50;73.90
61392;DHT22;47261;52.892;5.738;2022-08-16T13:35:31;27.50;74.60
61392;DHT22;47261;52.892;5.738;2022-08-16T14:02:31;28.40;76.00
61392;DHT22;47261;52.892;5.738;2022-08-16T14:04:57;28.30;75.50
61392;DHT22;47261;52.892;5.738;2022-08-16T14:07:23;28.20;74.00
61392;DHT22;47261;52.892;5.738;2022-08-16T14:09:48;28.20;73.60
61392;DHT22;47261;52.892;5.738;2022-08-16T14:16:08;28.40;72.90
61392;DHT22;47261;52.892;5.738;2022-08-16T14:18:34;28.40;72.90
61392;DHT22;47261;52.892;5.738;2022-08-16T14:21:00;28.60;72.60
61392;DHT22;47261;52.892;5.738;2022-08-16T14:23:25;28.70;72.40
61392;DHT22;47261;52.892;5.738;2022-08-16T14:25:51;28.90;71.20
61392;DHT22;47261;52.892;5.738;2022-08-16T14:28:17;29.10;70.70
61392;DHT22;47261;52.892;5.738;2022-08-16T14:30:43;29.20;70.00
61392;DHT22;47261;52.892;5.738;2022-08-16T14:33:09;29.20;69.60
61392;DHT22;47261;52.892;5.738;2022-08-16T14:35:35;29.20;69.10
61392;DHT22;47261;52.892;5.738;2022-08-16T14:38:01;29.30;69.30
61392;DHT22;47261;52.892;5.738;2022-08-16T14:40:27;29.30;69.40
61392;DHT22;47261;52.892;5.738;2022-08-16T14:42:54;29.30;68.60
61392;DHT22;47261;52.892;5.738;2022-08-16T14:45:22;29.30;68.40
61392;DHT22;47261;52.892;5.738;2022-08-16T14:47:48;29.20;68.20
61392;DHT22;47261;52.892;5.738;2022-08-16T14:50:19;29.10;68.10
61392;DHT22;47261;52.892;5.738;2022-08-16T14:52:51;28.90;68.00
61392;DHT22;47261;52.892;5.738;2022-08-16T14:55:17;28.80;68.30
61392;DHT22;47261;52.892;5.738;2022-08-16T14:57:44;28.60;68.50
61392;DHT22;47261;52.892;5.738;2022-08-16T15:00:11;28.50;68.60
61392;DHT22;47261;52.892;5.738;2022-08-16T15:02:38;28.50;69.30
61392;DHT22;47261;52.892;5.738;2022-08-16T15:05:05;28.40;68.80
61392;DHT22;47261;52.892;5.738;2022-08-16T15:07:31;28.40;68.40
61392;DHT22;47261;52.892;5.738;2022-08-16T15:09:57;28.30;68.40
61392;DHT22;47261;52.892;5.738;2022-08-16T15:12:24;28.20;68.40
61392;DHT22;47261;52.892;5.738;2022-08-16T15:14:53;28.10;68.50
61392;DHT22;47261;52.892;5.738;2022-08-16T15:17:22;28.00;68.20
61392;DHT22;47261;52.892;5.738;2022-08-16T15:19:50;27.80;67.90
61392;DHT22;47261;52.892;5.738;2022-08-16T15:22:42;27.70;68.20
61392;DHT22;47261;52.892;5.738;2022-08-16T15:25:16;27.60;68.80
61392;DHT22;47261;52.892;5.738;2022-08-16T15:27:43;27.50;68.70
61392;DHT22;47261;52.892;5.738;2022-08-16T15:30:16;27.40;68.50
61392;DHT22;47261;52.892;5.738;2022-08-16T15:32:42;27.30;68.70
61392;DHT22;47261;52.892;5.738;2022-08-16T15:35:09;27.30;68.70
61392;DHT22;47261;52.892;5.738;2022-08-16T15:37:35;27.20;68.80
61392;DHT22;47261;52.892;5.738;2022-08-16T15:40:08;27.20;69.20
61392;DHT22;47261;52.892;5.738;2022-08-16T15:42:34;27.20;68.10
61392;DHT22;47261;52.892;5.738;2022-08-16T15:45:05;27.00;68.30
61392;DHT22;47261;52.892;5.738;2022-08-16T15:47:31;27.00;67.90
61392;DHT22;47261;52.892;5.738;2022-08-16T15:49:59;26.90;68.40
61392;DHT22;47261;52.892;5.738;2022-08-16T15:52:29;26.90;68.30
61392;DHT22;47261;52.892;5.738;2022-08-16T15:54:55;26.80;67.70
61392;DHT22;47261;52.892;5.738;2022-08-16T15:57:23;26.70;67.40